createdAt,value
2023-01-27T00:00:59.382Z,4.10
2023-01-27T00:03:27.124Z,3.73
2023-01-27T00:05:54.776Z,4.30
2023-01-27T00:08:22.427Z,4.27
2023-01-27T00:11:10.615Z,4.30
2023-01-27T00:13:38.656Z,4.33
2023-01-27T00:16:06.981Z,4.30
2023-01-27T00:18:34.662Z,5.17
2023-01-27T00:21:19.723Z,4.47
2023-01-27T00:24:05.117Z,4.33
2023-01-27T00:26:32.777Z,4.43
2023-01-27T00:29:01.844Z,5.33
2023-01-27T00:31:46.917Z,4.47
2023-01-27T00:34:14.634Z,4.67
2023-01-27T00:36:43.392Z,4.07
2023-01-27T00:39:12.647Z,4.30
2023-01-27T00:41:40.966Z,3.83
2023-01-27T00:44:12.987Z,3.60
2023-01-27T00:46:41.194Z,3.60
2023-01-27T00:49:09.083Z,3.53
2023-01-27T00:51:36.984Z,3.47
2023-01-27T00:54:05.200Z,3.70
2023-01-27T00:56:33.025Z,3.27
2023-01-27T00:59:00.782Z,3.33
2023-01-27T01:01:29.960Z,3.00
2023-01-27T01:03:58.791Z,2.73
2023-01-27T01:06:26.817Z,2.83
2023-01-27T01:08:56.766Z,2.93
2023-01-27T01:11:24.930Z,3.07
2023-01-27T01:13:55.930Z,2.80
2023-01-27T01:16:25.397Z,2.60
2023-01-27T01:18:54.869Z,3.20
2023-01-27T01:21:22.900Z,2.80
2023-01-27T01:23:50.741Z,2.80
2023-01-27T01:26:19.174Z,2.90
2023-01-27T01:28:47.551Z,3.13
2023-01-27T01:31:17.738Z,2.70
2023-01-27T01:33:45.671Z,2.43
2023-01-27T01:36:16.565Z,2.50
2023-01-27T01:38:44.347Z,2.70
2023-01-27T01:41:15.624Z,2.30
2023-01-27T01:43:43.522Z,2.43
2023-01-27T01:46:12.194Z,2.33
2023-01-27T01:48:42.996Z,2.10
2023-01-27T01:51:13.800Z,2.40
2023-01-27T01:53:48.525Z,2.30
2023-01-27T01:56:20.654Z,1.90
2023-01-27T01:58:49.803Z,2.07
2023-01-27T02:01:19.404Z,1.90
2023-01-27T02:03:51.580Z,2.10
2023-01-27T02:06:19.403Z,2.23
2023-01-27T02:08:51.140Z,2.30
2023-01-27T02:11:19.247Z,2.00
2023-01-27T02:13:47.486Z,1.87
2023-01-27T02:16:15.334Z,2.30
2023-01-27T02:18:44.117Z,2.20
2023-01-27T02:21:11.732Z,2.03
2023-01-27T02:24:01.272Z,1.80
2023-01-27T02:26:33.246Z,1.90
2023-01-27T02:29:04.469Z,1.90
2023-01-27T02:31:32.535Z,1.90
2023-01-27T02:34:04.057Z,2.13
2023-01-27T02:36:34.551Z,1.80
2023-01-27T02:39:03.142Z,1.80
2023-01-27T02:41:36.250Z,2.10
2023-01-27T02:44:04.193Z,1.80
2023-01-27T02:46:32.225Z,1.97
2023-01-27T02:48:59.911Z,1.90
2023-01-27T02:51:27.555Z,2.17
2023-01-27T02:53:55.230Z,1.90
2023-01-27T02:56:24.186Z,2.07
2023-01-27T02:58:53.155Z,1.80
2023-01-27T03:01:20.858Z,2.10
2023-01-27T03:03:48.520Z,1.90
2023-01-27T03:06:16.563Z,1.90
2023-01-27T03:08:44.714Z,1.63
2023-01-27T03:11:12.796Z,2.10
2023-01-27T03:13:40.703Z,2.10
2023-01-27T03:16:29.562Z,1.77
2023-01-27T03:18:57.495Z,2.43
2023-01-27T03:21:25.130Z,1.80
2023-01-27T03:23:52.877Z,2.10
2023-01-27T03:26:20.552Z,1.93
2023-01-27T03:29:08.171Z,1.60
2023-01-27T03:31:37.328Z,1.90
2023-01-27T03:34:05.416Z,1.90
2023-01-27T03:36:50.563Z,1.70
2023-01-27T03:39:36.072Z,1.50
2023-01-27T03:42:21.402Z,1.67
2023-01-27T03:45:06.679Z,1.80
2023-01-27T03:47:35.727Z,1.90
2023-01-27T03:50:03.402Z,1.80
2023-01-27T03:52:31.104Z,1.60
2023-01-27T03:54:58.734Z,1.83
2023-01-27T03:57:26.565Z,1.80
2023-01-27T03:59:54.210Z,1.77
2023-01-27T04:02:39.329Z,1.80
2023-01-27T04:05:27.193Z,1.40
2023-01-27T04:07:54.834Z,2.07
2023-01-27T04:10:22.436Z,1.73
2023-01-27T04:12:49.113Z,1.83
2023-01-27T04:15:18.275Z,1.60
2023-01-27T04:17:45.898Z,1.70
2023-01-27T04:20:15.217Z,1.80
2023-01-27T04:22:42.891Z,1.87
2023-01-27T04:25:13.201Z,1.70
2023-01-27T04:27:42.259Z,1.70
2023-01-27T04:30:11.280Z,2.00
2023-01-27T04:32:38.911Z,1.60
2023-01-27T04:35:07.075Z,1.90
2023-01-27T04:37:36.058Z,1.80
2023-01-27T04:40:03.688Z,1.43
2023-01-27T04:42:31.330Z,1.60
2023-01-27T04:44:59.035Z,1.67
2023-01-27T04:47:26.651Z,1.80
2023-01-27T04:49:54.305Z,1.90
2023-01-27T04:52:23.003Z,1.50
2023-01-27T04:54:52.013Z,1.77
2023-01-27T04:57:20.255Z,1.60
2023-01-27T04:59:47.940Z,1.77
2023-01-27T05:02:15.681Z,1.67
2023-01-27T05:04:43.396Z,1.80
2023-01-27T05:07:11.041Z,1.80
2023-01-27T05:09:38.661Z,1.97
2023-01-27T05:12:08.079Z,1.80
2023-01-27T05:14:35.719Z,1.67
2023-01-27T05:17:03.494Z,1.47
2023-01-27T05:19:31.215Z,1.50
2023-01-27T05:21:58.879Z,1.40
2023-01-27T05:24:26.547Z,1.33
2023-01-27T05:26:54.441Z,1.50
2023-01-27T05:29:23.479Z,2.00
2023-01-27T05:31:51.165Z,1.63
2023-01-27T05:34:19.266Z,1.50
2023-01-27T05:36:46.944Z,1.33
2023-01-27T05:39:14.638Z,1.43
2023-01-27T05:41:42.333Z,1.27
2023-01-27T05:44:12.792Z,1.50
2023-01-27T05:46:43.292Z,1.50
2023-01-27T05:49:10.946Z,1.50
2023-01-27T05:51:40.671Z,1.63
2023-01-27T05:54:09.117Z,1.80
2023-01-27T05:56:36.893Z,1.80
2023-01-27T05:59:04.618Z,1.50
2023-01-27T06:01:33.939Z,1.33
2023-01-27T06:04:03.147Z,1.60
2023-01-27T06:06:32.241Z,1.60
2023-01-27T06:09:00.808Z,1.40
2023-01-27T06:11:28.723Z,1.47
2023-01-27T06:13:57.057Z,1.40
2023-01-27T06:16:25.184Z,1.40
2023-01-27T06:18:52.997Z,1.50
2023-01-27T06:21:22.009Z,1.80
2023-01-27T06:23:50.162Z,1.50
2023-01-27T06:26:20.353Z,1.60
2023-01-27T06:28:48.297Z,1.53
2023-01-27T06:31:18.382Z,1.87
2023-01-27T06:33:46.325Z,1.50
2023-01-27T06:36:15.742Z,1.50
2023-01-27T06:38:45.685Z,1.40
2023-01-27T06:41:13.403Z,1.63
2023-01-27T06:43:41.095Z,1.20
2023-01-27T06:46:08.884Z,1.70
2023-01-27T06:48:37.782Z,1.53
2023-01-27T06:51:05.788Z,1.57
2023-01-27T06:53:34.859Z,1.30
2023-01-27T06:56:04.277Z,1.60
2023-01-27T06:58:32.997Z,1.50
2023-01-27T07:01:00.779Z,1.40
2023-01-27T07:03:28.483Z,1.47
2023-01-27T07:05:56.162Z,1.60
2023-01-27T07:08:23.870Z,1.80
2023-01-27T07:10:51.483Z,1.50
2023-01-27T07:13:20.441Z,1.53
2023-01-27T07:15:48.844Z,1.40
2023-01-27T07:18:16.591Z,1.70
2023-01-27T07:20:44.433Z,1.40
2023-01-27T07:23:13.124Z,1.40
2023-01-27T07:25:41.139Z,1.60
2023-01-27T07:28:08.769Z,1.77
2023-01-27T07:30:39.320Z,1.60
2023-01-27T07:33:08.790Z,1.30
2023-01-27T07:35:37.098Z,1.17
2023-01-27T07:38:05.195Z,1.40
2023-01-27T07:40:32.903Z,1.53
2023-01-27T07:43:01.256Z,1.50
2023-01-27T07:45:30.140Z,1.80
2023-01-27T07:48:03.094Z,1.30
2023-01-27T07:50:31.238Z,1.70
2023-01-27T07:53:00.806Z,1.60
2023-01-27T07:55:28.592Z,1.70
2023-01-27T07:57:56.395Z,1.50
2023-01-27T08:00:24.690Z,1.43
2023-01-27T08:02:52.526Z,1.60
2023-01-27T08:05:22.579Z,1.60
2023-01-27T08:07:50.533Z,1.80
2023-01-27T08:10:18.832Z,1.40
2023-01-27T08:12:47.035Z,1.70
2023-01-27T08:15:18.740Z,1.53
2023-01-27T08:17:54.580Z,1.53
2023-01-27T08:20:23.770Z,1.43
2023-01-27T08:22:51.478Z,1.40
2023-01-27T08:25:19.285Z,1.60
2023-01-27T08:27:50.661Z,1.30
2023-01-27T08:30:19.305Z,1.60
2023-01-27T08:32:47.792Z,1.20
2023-01-27T08:35:15.504Z,1.70
2023-01-27T08:37:45.156Z,1.40
2023-01-27T08:40:14.406Z,1.50
2023-01-27T08:42:42.244Z,1.57
2023-01-27T08:45:10.304Z,1.30
2023-01-27T08:47:37.945Z,1.43
2023-01-27T08:50:06.059Z,1.30
2023-01-27T08:52:33.723Z,1.40
2023-01-27T08:55:02.739Z,1.30
2023-01-27T08:57:32.405Z,1.60
2023-01-27T09:00:00.223Z,1.37
2023-01-27T09:02:27.872Z,1.30
2023-01-27T09:04:55.519Z,1.50
2023-01-27T09:07:23.199Z,1.23
2023-01-27T09:09:58.160Z,1.80
2023-01-27T09:12:33.286Z,1.80
2023-01-27T09:15:00.892Z,1.47
2023-01-27T09:17:28.565Z,1.43
2023-01-27T09:19:56.232Z,1.30
2023-01-27T09:22:23.848Z,1.77
2023-01-27T09:24:51.457Z,1.60
2023-01-27T09:27:27.163Z,1.67
2023-01-27T09:30:02.387Z,1.40
2023-01-27T09:32:30.097Z,1.60
2023-01-27T09:34:57.705Z,1.47
2023-01-27T09:37:27.906Z,1.50
2023-01-27T09:40:02.723Z,1.53
2023-01-27T09:42:50.343Z,1.63
2023-01-27T09:45:43.090Z,1.70
2023-01-27T09:48:34.557Z,1.47
2023-01-27T09:51:10.674Z,1.70
2023-01-27T09:54:14.485Z,1.33
2023-01-27T09:56:53.711Z,1.40
2023-01-27T09:59:44.319Z,1.40
2023-01-27T10:02:28.197Z,1.70
2023-01-27T10:05:20.704Z,1.67
2023-01-27T10:08:14.792Z,2.07
2023-01-27T10:10:55.175Z,1.40
2023-01-27T10:13:36.051Z,1.37
2023-01-27T10:16:20.318Z,1.60
2023-01-27T10:19:05.296Z,1.60
2023-01-27T10:21:46.672Z,1.50
2023-01-27T10:24:27.693Z,1.50
2023-01-27T10:26:59.902Z,1.40
2023-01-27T10:29:31.499Z,1.47
2023-01-27T10:32:07.586Z,1.50
2023-01-27T10:34:38.237Z,2.20
2023-01-27T10:37:20.861Z,5.37
2023-01-27T10:39:57.843Z,6.63
2023-01-27T10:42:34.815Z,6.37
2023-01-27T10:45:17.430Z,6.60
2023-01-27T10:47:58.441Z,6.30
2023-01-27T10:50:32.172Z,6.53
2023-01-27T10:53:06.466Z,7.07
2023-01-27T10:55:42.069Z,7.67
2023-01-27T10:58:16.116Z,7.60
2023-01-27T11:01:18.037Z,7.33
2023-01-27T11:03:40.956Z,6.43
2023-01-27T11:06:14.891Z,7.10
2023-01-27T11:08:46.834Z,7.97
2023-01-27T11:11:35.519Z,6.77
2023-01-27T11:14:11.288Z,6.87
2023-01-27T11:16:41.253Z,6.60
2023-01-27T11:19:17.766Z,6.50
2023-01-27T11:21:53.042Z,7.23
2023-01-27T11:24:36.766Z,6.63
2023-01-27T11:27:14.479Z,7.13
2023-01-27T11:29:49.013Z,7.47
2023-01-27T11:32:27.131Z,6.73
2023-01-27T11:35:02.947Z,7.23
2023-01-27T11:37:35.099Z,7.07
2023-01-27T11:40:03.689Z,6.63
2023-01-27T11:42:33.193Z,7.00
2023-01-27T11:45:01.715Z,6.60
2023-01-27T11:47:33.619Z,7.30
2023-01-27T11:50:02.246Z,6.50
2023-01-27T11:52:30.164Z,6.87
2023-01-27T11:55:12.067Z,6.90
2023-01-27T11:57:44.360Z,7.00
2023-01-27T12:00:24.045Z,6.67
2023-01-27T12:03:00.453Z,6.90
2023-01-27T12:05:32.651Z,6.77
2023-01-27T12:08:02.523Z,7.23
2023-01-27T12:10:34.120Z,7.37
2023-01-27T12:13:08.924Z,6.27
2023-01-27T12:15:39.052Z,6.47
2023-01-27T12:18:15.034Z,6.10
2023-01-27T12:20:45.631Z,5.60
2023-01-27T12:23:22.868Z,5.83
2023-01-27T12:25:55.538Z,5.73
2023-01-27T12:28:29.285Z,5.77
2023-01-27T12:31:03.520Z,5.40
2023-01-27T12:33:33.521Z,5.10
2023-01-27T12:36:05.318Z,5.20
2023-01-27T12:38:37.189Z,4.33
2023-01-27T12:41:08.607Z,4.27
2023-01-27T12:43:51.604Z,4.03
2023-01-27T12:46:24.139Z,4.03
2023-01-27T12:48:53.200Z,4.10
2023-01-27T12:51:22.873Z,4.03
2023-01-27T12:53:51.661Z,4.07
2023-01-27T12:56:23.219Z,4.10
2023-01-27T12:58:58.859Z,4.43
2023-01-27T13:01:31.819Z,3.77
2023-01-27T13:04:02.186Z,3.57
2023-01-27T13:06:42.254Z,3.73
2023-01-27T13:09:25.292Z,3.90
2023-01-27T13:11:56.346Z,3.60
2023-01-27T13:14:24.215Z,3.77
2023-01-27T13:16:53.336Z,3.50
2023-01-27T13:19:21.435Z,3.37
2023-01-27T13:21:52.257Z,3.60
2023-01-27T13:24:28.392Z,3.23
2023-01-27T13:26:58.435Z,3.13
2023-01-27T13:29:31.901Z,3.20
2023-01-27T13:32:05.869Z,3.30
2023-01-27T13:34:39.391Z,2.97
2023-01-27T13:37:13.211Z,3.40
2023-01-27T13:39:58.675Z,3.33
2023-01-27T13:42:34.423Z,2.87
2023-01-27T13:45:05.777Z,3.30
2023-01-27T13:47:41.509Z,3.07
2023-01-27T13:50:17.992Z,2.83
2023-01-27T13:52:47.169Z,3.20
2023-01-27T13:55:15.811Z,2.90
2023-01-27T13:57:55.409Z,3.10
2023-01-27T14:00:28.289Z,2.90
2023-01-27T14:03:18.945Z,2.87
2023-01-27T14:06:01.317Z,3.33
2023-01-27T14:08:49.498Z,2.53
2023-01-27T14:11:26.422Z,2.77
2023-01-27T14:14:06.059Z,2.70
2023-01-27T14:16:42.420Z,2.83
2023-01-27T14:19:24.917Z,3.10
2023-01-27T14:21:58.704Z,2.97
2023-01-27T14:24:37.091Z,3.20
2023-01-27T14:27:10.471Z,2.90
2023-01-27T14:29:47.076Z,2.60
2023-01-27T14:32:26.775Z,2.47
2023-01-27T14:35:09.767Z,2.97
2023-01-27T14:37:48.490Z,2.60
2023-01-27T14:40:21.607Z,2.70
2023-01-27T14:43:03.835Z,2.60
2023-01-27T14:45:36.808Z,2.77
2023-01-27T14:48:14.629Z,2.60
2023-01-27T14:50:50.873Z,2.47
2023-01-27T14:53:32.294Z,2.80
2023-01-27T14:56:06.944Z,2.70
2023-01-27T14:58:45.765Z,3.20
2023-01-27T15:01:26.107Z,2.83
2023-01-27T15:04:32.640Z,2.57
2023-01-27T15:07:05.070Z,2.43
2023-01-27T15:09:44.425Z,2.60
2023-01-27T15:12:48.356Z,2.40
2023-01-27T15:15:50.464Z,2.77
2023-01-27T15:18:32.550Z,2.70
2023-01-27T15:21:18.145Z,3.00
2023-01-27T15:24:02.511Z,2.50
2023-01-27T15:26:32.824Z,2.37
2023-01-27T15:29:01.820Z,3.03
2023-01-27T15:31:31.021Z,2.83
2023-01-27T15:34:17.736Z,2.30
2023-01-27T15:37:02.274Z,2.77
2023-01-27T15:39:41.379Z,2.47
2023-01-27T15:42:12.454Z,2.70
2023-01-27T15:44:42.634Z,2.80
2023-01-27T15:47:12.893Z,2.50
2023-01-27T15:49:46.897Z,2.77
2023-01-27T15:52:29.748Z,2.40
2023-01-27T15:55:01.075Z,2.57
2023-01-27T15:57:32.140Z,2.63
2023-01-27T16:00:06.030Z,2.50
2023-01-27T16:02:38.001Z,2.40
2023-01-27T16:05:27.259Z,2.60
2023-01-27T16:08:00.118Z,2.77
2023-01-27T16:10:32.252Z,2.50
2023-01-27T16:13:26.048Z,2.70
2023-01-27T16:16:32.629Z,2.60
2023-01-27T16:19:19.209Z,2.63
2023-01-27T16:21:53.003Z,2.63
2023-01-27T16:24:34.332Z,2.33
2023-01-27T16:27:08.772Z,2.63
2023-01-27T16:29:40.773Z,2.63
2023-01-27T16:32:17.381Z,2.77
2023-01-27T16:34:49.173Z,2.43
2023-01-27T16:37:24.902Z,2.53
2023-01-27T16:40:00.063Z,2.47
2023-01-27T16:42:34.076Z,2.80
2023-01-27T16:45:05.434Z,2.57
2023-01-27T16:47:42.335Z,2.33
2023-01-27T16:50:33.923Z,2.53
2023-01-27T16:53:04.849Z,2.67
2023-01-27T16:55:32.781Z,2.83
2023-01-27T16:58:02.651Z,2.60
2023-01-27T17:00:33.495Z,2.40
2023-01-27T17:03:06.503Z,2.73
2023-01-27T17:05:34.308Z,2.00
2023-01-27T17:08:05.274Z,2.90
2023-01-27T17:10:35.139Z,2.83
2023-01-27T17:13:03.216Z,2.77
2023-01-27T17:15:36.017Z,2.77
2023-01-27T17:18:09.240Z,3.03
2023-01-27T17:20:40.465Z,2.77
2023-01-27T17:23:21.347Z,3.63
2023-01-27T17:25:50.643Z,3.03
2023-01-27T17:28:22.536Z,3.67
2023-01-27T17:30:50.691Z,2.93
2023-01-27T17:33:21.241Z,3.33
2023-01-27T17:35:54.664Z,3.87
2023-01-27T17:38:25.220Z,3.83
2023-01-27T17:40:54.960Z,3.40
2023-01-27T17:43:31.868Z,3.40
2023-01-27T17:46:16.018Z,3.73
2023-01-27T17:48:48.844Z,3.30
2023-01-27T17:51:21.374Z,3.30
2023-01-27T17:53:51.183Z,2.93
2023-01-27T17:56:23.602Z,3.23
2023-01-27T17:58:55.724Z,3.10
2023-01-27T18:01:23.919Z,3.13
2023-01-27T18:03:55.236Z,2.43
2023-01-27T18:06:26.153Z,2.90
2023-01-27T18:08:57.113Z,2.97
2023-01-27T18:11:31.193Z,2.80
2023-01-27T18:14:08.419Z,2.60
2023-01-27T18:16:36.681Z,2.70
2023-01-27T18:19:09.836Z,2.97
2023-01-27T18:21:37.725Z,2.50
2023-01-27T18:24:21.001Z,2.67
2023-01-27T18:26:50.373Z,2.43
2023-01-27T18:29:23.092Z,3.77
2023-01-27T18:31:54.794Z,3.10
2023-01-27T18:34:26.631Z,2.90
2023-01-27T18:36:57.019Z,3.03
2023-01-27T18:39:41.711Z,2.63
2023-01-27T18:42:14.733Z,3.20
2023-01-27T18:44:42.384Z,2.90
2023-01-27T18:47:31.560Z,3.17
2023-01-27T18:50:02.785Z,2.60
2023-01-27T18:52:30.635Z,2.73
2023-01-27T18:55:03.589Z,3.10
2023-01-27T18:57:31.211Z,3.00
2023-01-27T18:59:58.819Z,3.40
2023-01-27T19:02:27.058Z,3.10
2023-01-27T19:04:54.801Z,3.13
2023-01-27T19:07:22.427Z,3.10
2023-01-27T19:09:50.282Z,2.70
2023-01-27T19:12:19.323Z,3.03
2023-01-27T19:14:48.400Z,2.80
2023-01-27T19:17:19.937Z,3.20
2023-01-27T19:19:47.640Z,3.00
2023-01-27T19:22:17.918Z,3.10
2023-01-27T19:24:46.199Z,2.87
2023-01-27T19:27:15.292Z,3.27
2023-01-27T19:29:44.406Z,3.63
2023-01-27T19:32:15.184Z,3.40
2023-01-27T19:34:42.859Z,3.57
2023-01-27T19:37:17.487Z,2.90
2023-01-27T19:39:45.747Z,3.30
2023-01-27T19:42:15.101Z,3.27
2023-01-27T19:44:44.069Z,3.10
2023-01-27T19:47:13.350Z,3.20
2023-01-27T19:49:41.687Z,3.47
2023-01-27T19:52:10.069Z,3.23
2023-01-27T19:54:37.773Z,3.37
2023-01-27T19:57:06.346Z,2.90
2023-01-27T19:59:34.009Z,3.17
2023-01-27T20:02:03.115Z,3.77
2023-01-27T20:04:30.803Z,3.23
2023-01-27T20:06:58.415Z,3.40
2023-01-27T20:09:26.058Z,3.87
2023-01-27T20:11:53.669Z,2.90
2023-01-27T20:14:25.744Z,3.20
2023-01-27T20:16:53.589Z,3.70
2023-01-27T20:19:23.040Z,3.50
2023-01-27T20:21:51.127Z,3.20
2023-01-27T20:24:20.126Z,3.43
2023-01-27T20:26:48.114Z,3.60
2023-01-27T20:29:15.785Z,3.20
2023-01-27T20:31:43.725Z,3.40
2023-01-27T20:34:11.568Z,3.30
2023-01-27T20:36:40.595Z,3.53
2023-01-27T20:39:08.225Z,3.60
2023-01-27T20:41:35.871Z,3.53
2023-01-27T20:44:03.552Z,3.23
2023-01-27T20:46:31.504Z,3.50
2023-01-27T20:49:00.059Z,2.90
2023-01-27T20:51:27.748Z,3.20
2023-01-27T20:53:57.801Z,3.63
2023-01-27T20:56:25.644Z,3.43
2023-01-27T20:58:54.230Z,3.00
2023-01-27T21:01:24.300Z,3.40
2023-01-27T21:03:52.012Z,3.50
2023-01-27T21:06:20.455Z,3.70
2023-01-27T21:08:49.160Z,3.33
2023-01-27T21:11:21.204Z,3.20
2023-01-27T21:13:49.037Z,3.20
2023-01-27T21:16:16.710Z,3.27
2023-01-27T21:18:45.585Z,2.80
2023-01-27T21:21:23.862Z,3.53
2023-01-27T21:23:51.593Z,3.30
2023-01-27T21:26:21.027Z,3.40
2023-01-27T21:28:48.923Z,3.40
2023-01-27T21:31:18.934Z,3.47
2023-01-27T21:33:48.057Z,3.13
2023-01-27T21:36:15.687Z,3.50
2023-01-27T21:38:43.501Z,3.30
2023-01-27T21:41:13.981Z,3.80
2023-01-27T21:44:00.369Z,3.03
2023-01-27T21:46:28.021Z,3.80
2023-01-27T21:48:55.664Z,3.30
2023-01-27T21:51:23.296Z,3.60
2023-01-27T21:53:50.912Z,3.00
2023-01-27T21:56:18.529Z,3.37
2023-01-27T21:58:47.533Z,3.27
2023-01-27T22:01:15.287Z,3.83
2023-01-27T22:03:42.965Z,3.43
2023-01-27T22:06:11.421Z,3.33
2023-01-27T22:08:39.124Z,3.23
2023-01-27T22:11:09.500Z,3.30
2023-01-27T22:13:39.008Z,3.30
2023-01-27T22:16:12.435Z,3.20
2023-01-27T22:18:40.133Z,3.13
2023-01-27T22:21:07.782Z,2.70
2023-01-27T22:23:35.453Z,3.40
2023-01-27T22:26:03.172Z,3.33
2023-01-27T22:28:30.819Z,3.57
2023-01-27T22:31:01.740Z,3.20
2023-01-27T22:33:32.078Z,3.17
2023-01-27T22:36:00.920Z,3.13
2023-01-27T22:38:28.596Z,3.60
2023-01-27T22:40:57.622Z,3.40
2023-01-27T22:43:25.409Z,3.20
2023-01-27T22:45:53.157Z,3.20
2023-01-27T22:48:20.994Z,3.13
2023-01-27T22:50:49.988Z,3.10
2023-01-27T22:53:17.613Z,3.10
2023-01-27T22:55:45.296Z,3.37
2023-01-27T22:58:12.942Z,3.47
2023-01-27T23:00:40.549Z,3.70
2023-01-27T23:03:08.191Z,3.60
2023-01-27T23:05:35.809Z,3.57
2023-01-27T23:08:04.817Z,3.20
2023-01-27T23:10:32.474Z,3.30
2023-01-27T23:13:00.098Z,3.50
2023-01-27T23:15:28.005Z,3.80
2023-01-27T23:17:55.775Z,3.30
2023-01-27T23:20:24.137Z,3.70
2023-01-27T23:22:51.945Z,2.97
2023-01-27T23:25:20.935Z,3.20
2023-01-27T23:27:48.562Z,3.20
2023-01-27T23:30:16.249Z,3.30
2023-01-27T23:32:45.757Z,3.33
2023-01-27T23:35:13.732Z,3.50
2023-01-27T23:37:41.671Z,3.47
2023-01-27T23:40:10.611Z,5.70
2023-01-27T23:42:40.095Z,6.20
2023-01-27T23:45:08.586Z,7.13
2023-01-27T23:47:36.286Z,7.40
2023-01-27T23:50:04.065Z,8.33
2023-01-27T23:52:34.308Z,8.73
2023-01-27T23:55:01.961Z,9.07
2023-01-27T23:57:29.598Z,9.20
2023-01-27T23:59:58.617Z,9.33
